Terminal Aerodrome Forecast
Issued by NWS

Home | Current Version | Previous Version | Text Only | Print | Product List | Glossary On
Versions: 1 2 3 4 5 6 7 8 9 10 11 12 13 14 15 16 17 18 19 20 21 22 23 24
000
FTUS41 KGYX 140500
TAFLEB
TAF
KLEB 140526Z 1406/1506 19011KT P6SM SCT009 BKN045
     FM140900 19003KT 2SM BR OVC004
     FM141300 25005KT P6SM SCT050 SCT250
     FM142100 24007KT P6SM VCSH BKN050
     FM150500 18005KT 6SM SHRA BR OVC035=

USA.gov is the U.S. government's official web portal to all federal, state and local government web resources and services.